createdAt,value
2022-09-05T00:02:04.148Z,2.13
2022-09-05T00:06:10.279Z,2.13
2022-09-05T00:10:36.111Z,2.55
2022-09-05T00:15:19.151Z,2.37
2022-09-05T00:24:19.723Z,2.50
2022-09-05T00:24:42.128Z,2.10
2022-09-05T00:29:03.298Z,2.60
2022-09-05T00:33:31.393Z,2.50
2022-09-05T00:37:38.361Z,2.70
2022-09-05T00:41:41.774Z,2.72
2022-09-05T00:45:49.961Z,2.53
2022-09-05T00:49:59.991Z,2.50
2022-09-05T00:54:02.146Z,2.90
2022-09-05T00:58:27.558Z,2.85
2022-09-05T01:02:52.082Z,2.30
2022-09-05T01:07:03.476Z,2.50
2022-09-05T01:11:28.131Z,2.40
2022-09-05T01:15:47.747Z,2.30
2022-09-05T01:20:19.141Z,2.13
2022-09-05T01:24:43.713Z,2.50
2022-09-05T01:29:17.208Z,2.53
2022-09-05T01:33:57.285Z,2.22
2022-09-05T01:42:36.955Z,2.28
2022-09-05T01:47:30.951Z,2.47
2022-09-05T01:52:15.125Z,2.63
2022-09-05T01:56:34.177Z,2.63
2022-09-05T02:01:25.550Z,2.25
2022-09-05T02:06:01.393Z,2.42
2022-09-05T02:10:29.681Z,2.47
2022-09-05T02:14:45.746Z,2.47
2022-09-05T02:19:08.765Z,2.42
2022-09-05T02:23:32.660Z,2.50
2022-09-05T02:28:05.642Z,2.70
2022-09-05T02:32:21.135Z,2.92
2022-09-05T02:36:29.704Z,2.70
2022-09-05T02:45:03.838Z,2.50
2022-09-05T02:45:26.919Z,2.47
2022-09-05T02:52:50.473Z,2.80
2022-09-05T02:57:47.029Z,2.47
2022-09-05T02:59:08.501Z,2.38
2022-09-05T03:03:40.492Z,2.60
2022-09-05T03:08:07.681Z,3.03
2022-09-05T03:12:29.375Z,2.73
2022-09-05T03:16:53.486Z,2.63
2022-09-05T03:21:09.423Z,3.22
2022-09-05T03:25:49.640Z,2.65
2022-09-05T03:30:15.450Z,2.30
2022-09-05T03:34:51.476Z,2.70
2022-09-05T03:39:02.751Z,2.50
2022-09-05T03:43:30.864Z,2.75
2022-09-05T03:48:04.995Z,2.88
2022-09-05T03:57:05.553Z,2.80
2022-09-05T03:57:42.141Z,3.17
2022-09-05T04:05:02.552Z,3.42
2022-09-05T04:08:16.280Z,2.75
2022-09-05T04:11:05.818Z,2.80
2022-09-05T04:15:22.001Z,2.78
2022-09-05T04:19:35.118Z,2.95
2022-09-05T04:24:01.384Z,2.75
2022-09-05T04:28:22.017Z,2.70
2022-09-05T04:32:54.178Z,2.88
2022-09-05T04:37:06.497Z,2.80
2022-09-05T04:41:18.153Z,3.08
2022-09-05T04:45:24.393Z,2.97
2022-09-05T04:49:51.422Z,3.08
2022-09-05T04:54:27.613Z,2.80
2022-09-05T05:00:41.121Z,3.10
2022-09-05T05:06:08.909Z,2.55
2022-09-05T05:07:50.085Z,3.13
2022-09-05T05:18:03.432Z,2.85
2022-09-05T05:18:11.989Z,3.50
2022-09-05T05:21:24.125Z,3.90
2022-09-05T05:25:27.192Z,3.38
2022-09-05T05:29:37.515Z,2.88
2022-09-05T05:33:41.017Z,3.00
2022-09-05T05:37:47.727Z,2.80
2022-09-05T05:41:55.577Z,3.00
2022-09-05T05:45:59.631Z,3.40
2022-09-05T05:50:11.602Z,3.15
2022-09-05T05:54:29.525Z,3.20
2022-09-05T06:03:26.594Z,3.38
2022-09-05T06:08:38.617Z,3.30
2022-09-05T06:15:05.202Z,3.00
2022-09-05T06:17:35.497Z,2.90
2022-09-05T06:22:14.958Z,3.10
2022-09-05T06:26:56.067Z,2.40
2022-09-05T06:31:29.060Z,2.88
2022-09-05T06:35:49.208Z,3.00
2022-09-05T06:40:28.070Z,2.90
2022-09-05T06:44:57.163Z,2.83
2022-09-05T06:49:33.514Z,2.83
2022-09-05T06:53:52.406Z,2.78
2022-09-05T06:58:07.177Z,2.63
2022-09-05T07:02:58.347Z,3.05
2022-09-05T07:07:06.491Z,3.38
2022-09-05T07:11:16.488Z,4.05
2022-09-05T07:15:33.661Z,2.10
2022-09-05T07:19:54.884Z,1.57
2022-09-05T07:24:09.926Z,1.60
2022-09-05T07:28:29.009Z,1.42
2022-09-05T07:32:42.680Z,1.52
2022-09-05T07:36:50.956Z,1.92
2022-09-05T07:41:29.372Z,2.00
2022-09-05T07:45:32.512Z,1.88
2022-09-05T07:49:39.951Z,1.70
2022-09-05T07:57:00.667Z,1.40
2022-09-05T07:58:51.662Z,1.13
2022-09-05T08:02:55.076Z,1.00
2022-09-05T08:07:48.972Z,0.98
2022-09-05T08:11:27.794Z,1.17
2022-09-05T08:15:38.336Z,1.08
2022-09-05T08:20:15.839Z,1.00
2022-09-05T08:24:26.764Z,1.10
2022-09-05T08:28:56.019Z,1.00
2022-09-05T08:33:10.197Z,0.90
2022-09-05T08:37:21.514Z,0.90
2022-09-05T08:41:43.214Z,1.05
2022-09-05T08:46:48.445Z,1.20
2022-09-05T08:50:37.913Z,0.90
2022-09-05T08:55:11.527Z,1.00
2022-09-05T08:59:31.484Z,0.82
2022-09-05T09:03:57.027Z,1.00
2022-09-05T09:08:15.851Z,0.90
2022-09-05T09:12:30.075Z,1.00
2022-09-05T09:16:44.608Z,0.82
2022-09-05T09:21:12.330Z,0.70
2022-09-05T09:29:25.424Z,1.00
2022-09-05T09:34:01.120Z,1.00
2022-09-05T09:38:22.280Z,0.90
2022-09-05T09:42:47.426Z,1.00
2022-09-05T09:46:50.818Z,0.85
2022-09-05T09:51:27.789Z,1.00
2022-09-05T09:55:52.078Z,0.90
2022-09-05T10:00:12.428Z,1.00
2022-09-05T10:10:33.964Z,1.08
2022-09-05T10:10:54.225Z,1.00
2022-09-05T10:14:03.895Z,1.02
2022-09-05T10:18:39.263Z,0.90
2022-09-05T10:23:07.910Z,0.80
2022-09-05T10:27:32.693Z,1.00
2022-09-05T10:34:42.454Z,0.80
2022-09-05T10:36:17.570Z,0.90
2022-09-05T10:40:26.376Z,0.80
2022-09-05T10:44:40.403Z,1.10
2022-09-05T10:48:54.238Z,1.00
2022-09-05T10:53:07.392Z,1.05
2022-09-05T10:57:33.942Z,0.70
2022-09-05T11:02:29.617Z,0.70
2022-09-05T11:06:09.076Z,0.90
2022-09-05T11:10:17.943Z,0.80
2022-09-05T11:14:49.306Z,1.13
2022-09-05T11:18:58.066Z,0.80
2022-09-05T11:23:08.419Z,1.05
2022-09-05T11:27:24.899Z,0.93
2022-09-05T11:36:29.613Z,1.10
2022-09-05T11:40:00.588Z,1.20
2022-09-05T11:41:38.426Z,1.13
2022-09-05T11:46:08.609Z,0.80
2022-09-05T11:55:37.599Z,0.90
2022-09-05T12:00:31.708Z,0.93
2022-09-05T12:05:47.438Z,1.00
2022-09-05T12:09:39.782Z,0.77
2022-09-05T12:13:53.953Z,1.10
2022-09-05T12:18:22.042Z,0.90
2022-09-05T12:22:41.411Z,0.90
2022-09-05T12:33:47.906Z,0.93
2022-09-05T12:40:51.933Z,1.00
2022-09-05T12:41:43.038Z,1.10
2022-09-05T12:45:13.973Z,1.10
2022-09-05T12:49:36.164Z,1.08
2022-09-05T12:53:55.366Z,1.17
2022-09-05T13:02:13.352Z,1.02
2022-09-05T13:03:01.406Z,1.20
2022-09-05T13:06:58.968Z,0.93
2022-09-05T13:14:49.122Z,0.82
2022-09-05T13:15:27.206Z,0.80
2022-09-05T13:19:34.454Z,0.73
2022-09-05T13:24:02.585Z,0.90
2022-09-05T13:28:07.123Z,1.00
2022-09-05T13:37:55.079Z,0.90
2022-09-05T13:38:12.951Z,0.90
2022-09-05T13:41:30.381Z,1.02
2022-09-05T13:45:39.385Z,0.80
2022-09-05T13:50:05.403Z,0.90
2022-09-05T13:54:29.277Z,0.90
2022-09-05T13:58:56.804Z,1.05
2022-09-05T14:03:40.809Z,0.70
2022-09-05T14:08:11.315Z,0.70
2022-09-05T14:13:00.865Z,0.75
2022-09-05T14:21:51.929Z,0.90
2022-09-05T14:26:00.047Z,0.82
2022-09-05T14:30:39.980Z,0.88
2022-09-05T14:37:48.383Z,0.93
2022-09-05T14:39:33.968Z,1.10
2022-09-05T14:43:38.759Z,0.90
2022-09-05T14:48:07.900Z,0.80
2022-09-05T14:52:23.392Z,1.27
2022-09-05T15:00:34.512Z,0.90
2022-09-05T15:02:49.441Z,0.80
2022-09-05T15:05:45.457Z,1.00
2022-09-05T15:12:16.943Z,0.90
2022-09-05T15:14:29.116Z,0.90
2022-09-05T15:18:37.424Z,0.82
2022-09-05T15:22:41.938Z,0.80
2022-09-05T15:26:54.112Z,0.90
2022-09-05T15:31:05.042Z,1.13
2022-09-05T15:35:07.944Z,1.00
2022-09-05T15:39:28.502Z,0.80
2022-09-05T15:43:30.844Z,0.90
2022-09-05T15:47:33.827Z,0.90
2022-09-05T15:51:43.704Z,1.00
2022-09-05T15:55:49.516Z,1.10
2022-09-05T16:00:00.217Z,1.00
2022-09-05T16:09:58.186Z,1.05
2022-09-05T16:10:47.281Z,1.00
2022-09-05T16:12:55.456Z,0.98
2022-09-05T16:23:15.645Z,0.93
2022-09-05T16:23:24.938Z,0.80
2022-09-05T16:25:58.343Z,1.00
2022-09-05T16:30:01.236Z,1.20
2022-09-05T16:34:10.398Z,1.10
2022-09-05T16:38:24.256Z,0.90
2022-09-05T16:43:02.220Z,1.13
2022-09-05T16:47:23.135Z,1.00
2022-09-05T16:51:42.752Z,1.05
2022-09-05T16:55:54.321Z,1.00
2022-09-05T16:59:57.174Z,1.20
2022-09-05T17:04:18.028Z,0.95
2022-09-05T17:08:29.643Z,1.05
2022-09-05T17:12:33.539Z,1.05
2022-09-05T17:16:48.961Z,1.17
2022-09-05T17:20:56.875Z,1.10
2022-09-05T17:29:19.655Z,1.48
2022-09-05T17:31:25.200Z,1.15
2022-09-05T17:34:54.599Z,1.20
2022-09-05T17:39:19.218Z,1.40
2022-09-05T17:43:28.451Z,1.20
2022-09-05T17:47:48.226Z,1.40
2022-09-05T17:51:52.991Z,2.08
2022-09-05T17:55:55.187Z,1.45
2022-09-05T18:00:21.898Z,1.30
2022-09-05T18:04:44.977Z,1.50
2022-09-05T18:08:47.964Z,1.50
2022-09-05T18:13:13.624Z,1.40
2022-09-05T18:17:41.466Z,1.42
2022-09-05T18:21:52.963Z,1.40
2022-09-05T18:26:09.251Z,1.40
2022-09-05T18:30:27.687Z,1.52
2022-09-05T18:34:31.390Z,1.77
2022-09-05T18:38:51.710Z,1.90
2022-09-05T18:42:54.581Z,1.60
2022-09-05T18:47:00.754Z,1.60
2022-09-05T18:51:13.001Z,1.63
2022-09-05T18:56:08.972Z,1.50
2022-09-05T18:59:52.950Z,1.50
2022-09-05T19:03:59.674Z,1.30
2022-09-05T19:08:12.428Z,1.10
2022-09-05T19:12:42.021Z,1.33
2022-09-05T19:16:49.911Z,7.60
2022-09-05T19:21:17.681Z,3.50
2022-09-05T19:36:57.053Z,1.70
2022-09-05T19:37:12.706Z,1.60
2022-09-05T19:40:23.904Z,1.80
2022-09-05T19:47:35.530Z,1.73
2022-09-05T19:51:56.241Z,1.73
2022-09-05T19:56:03.469Z,1.67
2022-09-05T20:00:06.188Z,1.83
2022-09-05T20:04:18.525Z,1.48
2022-09-05T20:08:33.097Z,1.60
2022-09-05T20:12:38.437Z,1.83
2022-09-05T20:16:40.941Z,1.90
2022-09-05T20:20:58.580Z,1.65
2022-09-05T20:25:02.357Z,1.88
2022-09-05T20:29:09.131Z,2.00
2022-09-05T20:33:21.265Z,1.70
2022-09-05T20:43:09.844Z,1.55
2022-09-05T20:43:32.029Z,1.50
2022-09-05T20:49:44.851Z,1.70
2022-09-05T20:54:23.199Z,1.40
2022-09-05T20:55:09.258Z,1.58
2022-09-05T20:59:41.773Z,1.50
2022-09-05T21:03:59.120Z,1.60
2022-09-05T21:08:24.367Z,1.67
2022-09-05T21:12:30.118Z,1.67
2022-09-05T21:16:45.354Z,1.52
2022-09-05T21:20:55.872Z,1.60
2022-09-05T21:25:36.001Z,1.70
2022-09-05T21:29:50.974Z,1.70
2022-09-05T21:34:02.793Z,1.60
2022-09-05T21:38:12.663Z,1.92
2022-09-05T21:42:51.766Z,1.80
2022-09-05T21:47:38.389Z,2.00
2022-09-05T21:51:13.020Z,1.80
2022-09-05T21:59:16.118Z,1.50
2022-09-05T21:59:46.128Z,1.73
2022-09-05T22:03:49.182Z,1.50
2022-09-05T22:07:54.410Z,2.00
2022-09-05T22:11:56.541Z,3.70
2022-09-05T22:16:04.344Z,2.70
2022-09-05T22:20:08.748Z,2.00
2022-09-05T22:24:11.544Z,1.80
2022-09-05T22:28:19.152Z,1.70
2022-09-05T22:32:28.569Z,2.20
2022-09-05T22:36:37.400Z,1.80
2022-09-05T22:40:42.444Z,2.03
2022-09-05T22:44:44.513Z,2.17
2022-09-05T22:48:46.619Z,2.15
2022-09-05T22:52:48.820Z,2.15
2022-09-05T22:56:50.847Z,2.00
2022-09-05T23:00:53.166Z,1.90
2022-09-05T23:04:55.216Z,1.77
2022-09-05T23:08:57.265Z,1.67
2022-09-05T23:13:02.790Z,2.00
2022-09-05T23:17:04.907Z,1.70
2022-09-05T23:21:12.037Z,1.98
2022-09-05T23:25:14.520Z,2.13
2022-09-05T23:29:16.655Z,1.70
2022-09-05T23:33:18.712Z,2.03
2022-09-05T23:37:20.736Z,2.28
2022-09-05T23:41:22.746Z,1.80
2022-09-05T23:45:26.230Z,2.15
2022-09-05T23:49:28.285Z,1.92
2022-09-05T23:53:30.319Z,2.17
2022-09-05T23:57:32.420Z,2.13
